Time;durP1;ratioP1;P1;durP2;ratioP2;P2;SDS_P1;SDS_P2;PMS_P1;PMS_P2;Temp;Humidity;BMP_temperature;BMP_pressure;BME280_temperature;BME280_humidity;BME280_pressure;Samples;Min_cycle;Max_cycle;Signal;HPM_P1;HPM_P2
2021/05/19 04:42:07;;;;;;;11.10;7.78;;;;;;;10.76;79.09;99666.19;5191226;27;20386;-67
2021/05/19 04:44:32;;;;;;;12.77;8.02;;;;;;;10.89;79.39;99667.38;5193992;27;20114;-66
2021/05/19 04:46:58;;;;;;;15.05;8.98;;;;;;;11.03;79.38;99665.69;5194978;27;20045;-68
2021/05/19 04:49:23;;;;;;;11.57;8.02;;;;;;;11.18;78.68;99671.81;5194490;27;36907;-69
2021/05/19 04:51:49;;;;;;;12.82;7.57;;;;;;;11.29;78.29;99675.84;5158681;27;20421;-68
2021/05/19 04:54:14;;;;;;;16.20;9.07;;;;;;;11.39;79.25;99671.03;5194897;27;20032;-68
2021/05/19 04:56:39;;;;;;;14.05;8.88;;;;;;;11.53;78.91;99674.69;5194910;27;20332;-68
2021/05/19 04:59:05;;;;;;;17.40;8.45;;;;;;;11.67;78.99;99681.81;5174912;27;34907;-67
2021/05/19 05:01:30;;;;;;;13.65;8.00;;;;;;;11.83;78.81;99683.38;5195200;27;20026;-68
2021/05/19 05:03:55;;;;;;;11.77;7.20;;;;;;;12.06;78.71;99693.09;5194799;27;25036;-68
2021/05/19 05:06:21;;;;;;;13.00;7.22;;;;;;;12.22;78.59;99692.00;5195396;27;20466;-68
2021/05/19 05:08:46;;;;;;;10.50;6.38;;;;;;;12.37;78.16;99686.56;5194166;27;36505;-68
2021/05/19 05:11:12;;;;;;;12.95;6.88;;;;;;;12.49;78.10;99687.66;5180709;27;20029;-65
2021/05/19 05:13:37;;;;;;;9.30;6.80;;;;;;;12.62;77.40;99691.44;5173857;27;20031;-64
2021/05/19 05:16:03;;;;;;;10.52;7.03;;;;;;;12.75;77.46;99696.84;5192948;27;32469;-65
2021/05/19 05:18:36;;;;;;;8.10;6.03;;;;;;;12.97;77.66;99699.44;5194695;27;20117;-65
2021/05/19 05:21:02;;;;;;;7.50;5.47;;;;;;;13.14;77.27;99706.13;5175987;27;20137;-65
2021/05/19 05:23:28;;;;;;;11.80;6.40;;;;;;;13.33;77.13;99709.09;5175704;27;20027;-66
2021/05/19 05:25:54;;;;;;;9.27;6.38;;;;;;;13.44;76.33;99705.84;5194695;27;20039;-65
2021/05/19 05:28:19;;;;;;;10.15;6.47;;;;;;;13.43;75.60;99704.19;5194333;27;20027;-67
2021/05/19 05:30:44;;;;;;;9.07;6.15;;;;;;;13.39;75.27;99710.97;5194143;27;26033;-65
2021/05/19 05:33:10;;;;;;;9.85;6.40;;;;;;;13.41;74.91;99716.97;5192724;27;33259;-67
2021/05/19 05:35:35;;;;;;;12.57;6.38;;;;;;;13.40;74.70;99709.97;5193516;27;40226;-66
2021/05/19 05:38:01;;;;;;;11.52;6.75;;;;;;;13.40;74.96;99715.31;5193891;27;32825;-69
2021/05/19 05:40:26;;;;;;;11.48;6.45;;;;;;;13.50;75.17;99715.75;5193022;27;39495;-67
2021/05/19 05:42:51;;;;;;;11.52;6.05;;;;;;;13.61;74.52;99721.53;5194727;27;20035;-68
2021/05/19 05:45:17;;;;;;;9.48;6.10;;;;;;;13.69;74.57;99718.69;5160197;27;31369;-65
2021/05/19 05:47:42;;;;;;;10.05;6.68;;;;;;;13.73;74.08;99722.59;5172928;27;20471;-67
2021/05/19 05:50:08;;;;;;;8.75;6.50;;;;;;;13.74;73.57;99721.59;5173060;27;20019;-66
2021/05/19 05:52:33;;;;;;;9.02;6.07;;;;;;;13.69;73.02;99724.84;5164420;27;20041;-66
2021/05/19 05:55:00;;;;;;;9.20;6.05;;;;;;;13.70;72.80;99723.03;5158655;27;34712;-68
2021/05/19 05:57:25;;;;;;;7.93;6.20;;;;;;;13.66;72.82;99725.25;5158968;27;20479;-67
2021/05/19 05:59:50;;;;;;;10.82;6.28;;;;;;;13.68;72.70;99725.91;5159485;27;20038;-68
2021/05/19 06:02:16;;;;;;;10.05;6.45;;;;;;;13.72;72.71;99737.00;5158443;27;22218;-68
2021/05/19 06:04:41;;;;;;;11.48;6.60;;;;;;;13.76;72.39;99732.09;5159071;27;20032;-67
2021/05/19 06:07:07;;;;;;;10.38;5.88;;;;;;;13.82;72.23;99732.09;5159056;27;20053;-68
2021/05/19 06:09:32;;;;;;;9.23;5.75;;;;;;;13.83;72.02;99741.78;5159598;27;20544;-68
2021/05/19 06:11:58;;;;;;;7.78;6.03;;;;;;;13.94;72.42;99734.19;5139986;27;20043;-66
2021/05/19 06:14:23;;;;;;;8.50;6.05;;;;;;;14.07;72.11;99742.25;5158924;27;23798;-67
2021/05/19 06:16:49;;;;;;;9.60;6.78;;;;;;;14.12;71.37;99747.81;5158808;27;20035;-67
2021/05/19 06:19:15;;;;;;;9.45;6.35;;;;;;;14.15;71.58;99744.72;5159007;27;20023;-67
2021/05/19 06:21:40;;;;;;;8.90;6.45;;;;;;;14.29;71.79;99742.06;5139608;27;20027;-67
2021/05/19 06:24:07;;;;;;;9.32;5.90;;;;;;;14.43;71.53;99741.00;5158961;27;20027;-71
2021/05/19 06:26:32;;;;;;;7.80;6.03;;;;;;;14.52;71.27;99739.78;5140128;27;20063;-69
2021/05/19 06:28:57;;;;;;;7.35;6.13;;;;;;;14.72;71.73;99745.16;5158119;27;24448;-68
2021/05/19 06:31:23;;;;;;;10.07;5.75;;;;;;;15.10;72.47;99740.94;5158915;27;20437;-70
2021/05/19 06:33:48;;;;;;;7.35;5.70;;;;;;;15.35;70.97;99738.38;5139771;27;20361;-69
2021/05/19 06:36:14;;;;;;;9.00;6.18;;;;;;;15.53;70.78;99737.69;5157796;27;38818;-71
2021/05/19 06:38:39;;;;;;;7.40;5.90;;;;;;;15.72;70.28;99738.63;5158193;27;20020;-68
2021/05/19 06:41:04;;;;;;;9.23;5.80;;;;;;;15.81;69.33;99736.53;5157801;27;31630;-66
2021/05/19 06:43:30;;;;;;;7.22;5.25;;;;;;;15.79;68.86;99727.00;5158204;27;20028;-65
2021/05/19 06:45:55;;;;;;;10.73;5.47;;;;;;;15.65;67.48;99732.47;5157694;27;29260;-69
2021/05/19 06:48:21;;;;;;;6.80;5.80;;;;;;;15.54;68.10;99735.81;5158241;27;20031;-68
2021/05/19 06:50:46;;;;;;;8.98;5.40;;;;;;;15.60;67.96;99739.53;5157899;27;20031;-71
2021/05/19 06:53:12;;;;;;;6.70;5.00;;;;;;;15.66;67.55;99739.47;5139630;27;20031;-68
2021/05/19 06:55:38;;;;;;;6.53;5.38;;;;;;;15.56;66.48;99737.25;5162441;27;20038;-69
2021/05/19 06:58:04;;;;;;;7.78;5.15;;;;;;;15.46;66.72;99750.31;5177960;27;20067;-66
2021/05/19 07:00:29;;;;;;;9.23;5.07;;;;;;;15.55;67.02;99743.69;5177966;27;33878;-66
2021/05/19 07:02:55;;;;;;;7.35;4.43;;;;;;;15.80;68.04;99742.97;5178629;27;20427;-68
2021/05/19 07:05:20;;;;;;;7.20;4.47;;;;;;;16.09;67.36;99743.38;5177045;27;34174;-67
2021/05/19 07:07:46;;;;;;;5.30;4.43;;;;;;;16.29;66.88;99735.16;5138242;27;40511;-65
2021/05/19 07:10:13;;;;;;;9.02;5.05;;;;;;;16.34;65.15;99737.22;5116370;28;20624;-68
2021/05/19 07:12:38;;;;;;;5.82;4.70;;;;;;;16.12;64.15;99742.94;5116518;28;20016;-65
2021/05/19 07:15:11;;;;;;;5.75;4.45;;;;;;;15.88;63.57;99739.19;5115793;28;20464;-68
2021/05/19 07:17:36;;;;;;;8.40;4.53;;;;;;;15.80;64.36;99734.91;5116515;28;20028;-66
2021/05/19 07:20:02;;;;;;;7.22;4.30;;;;;;;15.80;64.67;99740.28;5098403;28;20035;-69
2021/05/19 07:22:30;;;;;;;6.15;4.20;;;;;;;15.86;64.83;99736.72;5116327;28;20081;-64
2021/05/19 07:24:56;;;;;;;8.68;4.38;;;;;;;16.05;64.75;99742.19;5116289;28;20794;-64
2021/05/19 07:27:21;;;;;;;6.70;4.32;;;;;;;16.14;64.52;99740.84;5096644;28;38534;-65
2021/05/19 07:29:46;;;;;;;5.00;3.40;;;;;;;16.30;64.77;99744.06;5100340;28;39729;-67
2021/05/19 07:32:12;;;;;;;6.00;3.20;;;;;;;16.71;65.82;99735.41;5076488;28;36674;-65
2021/05/19 07:34:37;;;;;;;3.92;2.83;;;;;;;17.13;65.34;99728.59;5094875;28;38791;-63
2021/05/19 07:37:03;;;;;;;4.72;3.05;;;;;;;17.31;63.71;99731.28;5095512;28;20036;-65
2021/05/19 07:39:29;;;;;;;7.30;3.25;;;;;;;17.59;64.38;99727.19;5095198;28;29832;-65
2021/05/19 07:41:55;;;;;;;7.45;3.83;;;;;;;17.75;62.76;99734.63;5094750;28;20045;-66
2021/05/19 07:44:20;;;;;;;7.97;3.88;;;;;;;17.68;61.23;99733.91;5095543;28;20025;-67
2021/05/19 07:46:46;;;;;;;7.93;3.85;;;;;;;17.56;60.82;99736.59;5094164;28;35306;-66
2021/05/19 07:49:12;;;;;;;5.45;3.05;;;;;;;17.50;60.87;99732.09;5094785;28;36453;-68
2021/05/19 07:51:38;;;;;;;7.18;3.20;;;;;;;17.65;61.52;99728.19;5095139;28;20055;-70
2021/05/19 07:54:04;;;;;;;7.47;3.35;;;;;;;17.88;61.79;99728.25;5094818;28;31824;-64
2021/05/19 07:56:43;;;;;;;7.10;3.72;;;;;;;18.05;60.95;99739.22;5095282;28;20166;-65
2021/05/19 07:59:13;;;;;;;6.45;3.42;;;;;;;18.05;59.71;99738.41;5079179;28;20160;-66
2021/05/19 08:04:04;;;;;;;5.57;2.67;;;;;;;17.68;58.44;99733.91;5095312;28;20033;-65
2021/05/19 08:06:30;;;;;;;7.15;3.05;;;;;;;17.48;58.03;99736.06;5095374;28;20051;-63
2021/05/19 08:08:55;;;;;;;5.47;2.75;;;;;;;17.29;57.60;99724.47;5094509;28;33781;-66
2021/05/19 08:11:20;;;;;;;6.63;3.28;;;;;;;17.02;57.38;99724.81;5094107;28;43149;-69
2021/05/19 08:13:47;;;;;;;5.45;2.95;;;;;;;16.76;57.19;99726.69;5093912;28;39525;-65
2021/05/19 08:16:13;;;;;;;7.32;3.33;;;;;;;16.53;56.67;99722.75;5076680;28;20094;-64
2021/05/19 08:18:38;;;;;;;11.82;3.85;;;;;;;16.27;56.54;99731.88;5095050;28;20052;-64
2021/05/19 08:21:04;;;;;;;6.40;3.47;;;;;;;15.99;56.39;99732.28;5094809;28;20052;-62
2021/05/19 08:23:29;;;;;;;7.38;3.22;;;;;;;15.79;56.54;99733.22;5094862;28;20029;-67
2021/05/19 08:25:55;;;;;;;5.28;3.10;;;;;;;15.61;56.13;99741.16;5094562;28;20071;-63
2021/05/19 08:28:21;;;;;;;6.15;3.33;;;;;;;15.34;55.90;99743.97;5094818;28;20025;-68
2021/05/19 08:30:47;;;;;;;4.65;3.00;;;;;;;15.12;55.76;99740.72;5094785;28;20362;-65
2021/05/19 08:33:13;;;;;;;5.93;3.80;;;;;;;14.89;56.23;99740.16;5094897;28;20071;-66
2021/05/19 08:35:38;;;;;;;7.50;3.65;;;;;;;14.79;56.42;99744.31;5093906;28;37018;-66
2021/05/19 08:38:03;;;;;;;5.85;3.67;;;;;;;14.72;56.96;99744.31;5094402;28;35641;-68
2021/05/19 08:40:29;;;;;;;7.05;4.13;;;;;;;14.65;56.75;99754.22;5094367;28;20044;-67
2021/05/19 08:42:55;;;;;;;7.03;3.78;;;;;;;14.62;57.51;99754.63;5094524;28;20378;-64
2021/05/19 08:45:21;;;;;;;7.53;4.03;;;;;;;14.61;57.71;99752.97;5094008;28;20059;-68
2021/05/19 08:47:47;;;;;;;5.90;3.97;;;;;;;14.59;57.26;99750.50;5076577;28;20098;-68
2021/05/19 08:50:12;;;;;;;5.07;3.72;;;;;;;14.51;57.06;99758.75;5076471;28;20042;-67
2021/05/19 08:52:38;;;;;;;5.95;4.55;;;;;;;14.37;57.22;99758.75;5094627;28;20035;-67
2021/05/19 08:55:10;;;;;;;5.60;3.75;;;;;;;14.38;58.02;99751.53;5094054;28;20028;-65
2021/05/19 08:57:39;;;;;;;7.10;4.53;;;;;;;14.39;57.99;99747.81;5094302;28;20111;-67
2021/05/19 09:00:07;;;;;;;7.35;4.28;;;;;;;14.54;58.82;99747.59;5095878;28;20024;-64
2021/05/19 09:02:32;;;;;;;5.22;3.72;;;;;;;14.68;59.16;99749.28;5114780;28;20036;-63
2021/05/19 09:04:58;;;;;;;7.28;4.70;;;;;;;15.00;60.42;99737.88;5114216;28;23387;-63
2021/05/19 09:07:24;;;;;;;6.28;4.20;;;;;;;15.67;62.64;99743.81;5079396;28;20142;-67
2021/05/19 09:09:49;;;;;;;8.15;3.80;;;;;;;16.77;64.52;99743.66;5075864;28;20024;-69
2021/05/19 09:12:16;;;;;;;7.55;3.53;;;;;;;17.77;63.60;99742.50;5077245;28;20037;-68
2021/05/19 09:14:50;;;;;;;7.57;3.90;;;;;;;18.64;63.00;99734.97;5068267;28;20033;-64
2021/05/19 09:17:26;;;;;;;5.75;3.30;;;;;;;19.47;62.00;99738.38;5089730;28;20751;-69
2021/05/19 09:20:01;;;;;;;6.55;3.50;;;;;;;19.77;59.27;99737.31;5073877;28;20104;-68
2021/05/19 09:22:32;;;;;;;5.25;2.38;;;;;;;19.81;57.31;99735.00;5073936;28;20041;-69
2021/05/19 09:24:58;;;;;;;7.05;2.80;;;;;;;19.98;58.53;99743.94;5055707;28;20029;-65
2021/05/19 09:27:23;;;;;;;5.72;4.20;;;;;;;20.55;58.94;99740.28;5075568;28;20025;-69
2021/05/19 09:29:50;;;;;;;5.75;2.75;;;;;;;20.95;56.43;99741.13;5077380;28;20039;-66
2021/05/19 09:32:16;;;;;;;5.78;2.85;;;;;;;21.05;56.24;99730.47;5077593;28;20120;-65
2021/05/19 09:34:55;;;;;;;3.55;2.40;;;;;;;21.11;54.43;99728.63;5080850;28;20025;-64
2021/05/19 09:37:21;;;;;;;4.93;3.00;;;;;;;21.13;54.62;99732.72;5097585;28;20029;-69
2021/05/19 09:40:07;;;;;;;4.30;2.10;;;;;;;21.44;54.04;99726.84;5097087;28;20436;-66
2021/05/19 09:42:35;;;;;;;7.75;1.95;;;;;;;21.74;55.55;99725.59;5097458;28;20171;-70
2021/05/19 09:45:32;;;;;;;7.07;2.47;;;;;;;22.45;55.04;99721.88;5091997;28;20489;-71
2021/05/19 09:47:58;;;;;;;6.35;2.60;;;;;;;23.07;54.09;99714.09;5081484;28;20507;-69
2021/05/19 09:50:38;;;;;;;3.97;2.20;;;;;;;23.31;51.14;99720.72;5062244;28;20060;-70
2021/05/19 09:53:07;;;;;;;3.33;2.30;;;;;;;22.74;45.68;99718.81;5081334;28;20020;-69
2021/05/19 09:55:33;;;;;;;5.22;2.40;;;;;;;22.18;47.42;99719.19;5097005;28;20039;-68
2021/05/19 09:57:58;;;;;;;6.70;2.15;;;;;;;21.88;48.20;99715.94;5097463;28;20181;-68
2021/05/19 10:00:26;;;;;;;4.20;2.15;;;;;;;21.93;49.54;99718.72;5060077;28;20036;-67
2021/05/19 10:02:52;;;;;;;5.10;1.65;;;;;;;22.03;49.07;99706.31;5097330;28;20032;-67
2021/05/19 10:05:21;;;;;;;4.15;2.05;;;;;;;22.41;49.83;99707.19;5062126;28;20388;-68
2021/05/19 10:07:47;;;;;;;4.50;2.83;;;;;;;22.96;49.19;99713.22;5084624;28;20051;-66
2021/05/19 10:10:12;;;;;;;4.43;1.65;;;;;;;22.88;45.59;99716.44;5058462;28;20018;-67
2021/05/19 10:12:39;;;;;;;8.88;1.80;;;;;;;22.68;46.62;99714.41;5076161;28;27413;-63
2021/05/19 10:15:08;;;;;;;2.58;1.60;;;;;;;22.96;47.58;99715.94;5049660;28;20052;-65
2021/05/19 10:17:37;;;;;;;5.00;1.80;;;;;;;23.04;44.81;99720.06;5058747;28;20759;-66
2021/05/19 10:20:03;;;;;;;5.00;1.70;;;;;;;23.14;46.02;99710.09;5076302;28;20847;-65
2021/05/19 10:22:29;;;;;;;2.75;1.63;;;;;;;23.46;45.72;99706.38;5062548;28;20347;-64
2021/05/19 10:27:54;;;;;;;3.70;2.00;;;;;;;23.89;41.33;99710.84;5095312;28;20032;-61
2021/05/19 10:30:39;;;;;;;2.95;1.95;;;;;;;23.61;43.53;99712.94;5079159;28;20123;-60
2021/05/19 10:33:44;;;;;;;6.00;1.80;;;;;;;23.99;44.88;99722.53;5096197;28;20037;-63
2021/05/19 10:36:24;;;;;;;3.25;1.70;;;;;;;24.44;43.58;99719.25;5013994;28;20038;-64
2021/05/19 10:39:08;;;;;;;2.53;1.42;;;;;;;24.56;42.84;99717.06;5013799;28;20035;-60
2021/05/19 10:41:39;;;;;;;4.30;1.60;;;;;;;24.63;42.35;99720.38;5069973;28;20049;-63
2021/05/19 10:44:08;;;;;;;8.07;1.95;;;;;;;24.39;40.72;99713.84;5096729;28;20051;-62
2021/05/19 10:47:00;;;;;;;3.63;1.88;;;;;;;23.85;40.02;99713.25;5096179;28;20408;-63
2021/05/19 11:01:08;;;;;;;3.78;1.20;;;;;;;23.84;41.18;99706.19;5093412;28;20064;-60
2021/05/19 11:03:34;;;;;;;2.00;1.40;;;;;;;24.21;39.80;99705.16;5094900;28;20111;-64
2021/05/19 11:06:00;;;;;;;2.53;0.98;;;;;;;24.38;39.58;99704.03;5095450;28;35386;-64
2021/05/19 11:08:30;;;;;;;1.65;0.93;;;;;;;24.42;38.99;99700.47;5096416;28;20028;-62
2021/05/19 11:11:14;;;;;;;6.82;1.17;;;;;;;24.45;38.52;99694.50;5078309;28;20060;-63
2021/05/19 11:14:02;;;;;;;3.78;1.33;;;;;;;24.46;38.29;99701.56;5095769;28;20906;-61
2021/05/19 11:16:44;;;;;;;5.32;1.30;;;;;;;24.67;38.46;99701.56;5094669;28;20033;-61
2021/05/19 11:19:19;;;;;;;2.35;1.08;;;;;;;24.90;38.09;99702.03;5096190;28;20539;-64
2021/05/19 11:21:45;;;;;;;4.35;1.20;;;;;;;24.91;37.12;99709.13;5095895;28;20029;-61
2021/05/19 11:24:15;;;;;;;2.38;1.10;;;;;;;24.90;36.95;99702.84;5095458;28;26508;-62
2021/05/19 11:26:46;;;;;;;5.50;1.52;;;;;;;24.46;35.72;99693.41;5095915;28;20178;-63
2021/05/19 11:29:13;;;;;;;3.47;1.63;;;;;;;23.96;34.81;99697.78;5094625;28;20577;-65
2021/05/19 11:31:42;;;;;;;4.85;1.05;;;;;;;23.45;34.86;99688.44;5094307;28;20508;-63
2021/05/19 11:34:07;;;;;;;2.55;1.10;;;;;;;23.09;34.64;99684.78;5094593;28;20035;-61
2021/05/19 11:36:43;;;;;;;2.88;1.08;;;;;;;22.90;35.14;99692.56;5095770;28;20108;-65
2021/05/19 11:39:31;;;;;;;2.97;1.25;;;;;;;23.17;35.95;99689.72;5095589;28;20442;-64
2021/05/19 11:42:12;;;;;;;3.53;1.25;;;;;;;23.58;35.81;99686.28;5077420;28;20076;-62
2021/05/19 11:44:54;;;;;;;4.68;1.60;;;;;;;23.93;35.97;99687.44;5095465;28;20497;-62
2021/05/19 11:47:33;;;;;;;2.75;0.95;;;;;;;24.27;35.48;99682.25;5094839;28;20059;-62
2021/05/19 11:50:34;;;;;;;2.45;1.20;;;;;;;24.31;34.32;99691.50;5094770;28;20503;-62
2021/05/19 11:53:08;;;;;;;3.05;1.30;;;;;;;24.10;33.91;99689.91;5092000;28;20036;-61
2021/05/19 11:55:35;;;;;;;5.20;1.33;;;;;;;24.52;35.51;99690.69;5095376;28;20028;-61
2021/05/19 11:58:25;;;;;;;6.07;1.52;;;;;;;24.81;34.21;99691.72;5095489;28;20028;-60
2021/05/19 12:00:53;;;;;;;3.47;1.35;;;;;;;24.63;33.19;99692.31;5095632;28;20488;-62
2021/05/19 12:03:19;;;;;;;4.55;1.25;;;;;;;24.18;32.69;99705.69;5095275;28;20133;-62
2021/05/19 12:05:55;;;;;;;5.32;1.45;;;;;;;23.11;30.98;99694.28;5076855;28;20036;-61
2021/05/19 12:08:30;;;;;;;2.80;1.50;;;;;;;21.85;31.14;99702.91;5095053;28;20037;-62
2021/05/19 12:11:06;;;;;;;4.78;1.20;;;;;;;20.86;31.85;99710.16;5095392;28;20059;-63
2021/05/19 12:13:35;;;;;;;5.05;1.52;;;;;;;20.16;32.75;99713.16;5095233;28;20020;-63
2021/05/19 12:16:01;;;;;;;2.25;1.20;;;;;;;19.60;33.39;99719.19;5095004;28;20029;-64
2021/05/19 12:18:26;;;;;;;4.55;1.15;;;;;;;19.11;33.55;99718.75;5077031;28;24138;-63
2021/05/19 12:20:51;;;;;;;5.72;1.20;;;;;;;18.80;34.52;99715.38;5095200;28;20047;-62
2021/05/19 12:23:17;;;;;;;3.67;1.20;;;;;;;18.69;35.34;99718.91;5095098;28;20115;-62
2021/05/19 12:25:43;;;;;;;5.85;1.50;;;;;;;19.00;36.89;99722.28;5094058;28;20025;-62
2021/05/19 12:28:09;;;;;;;2.72;1.25;;;;;;;19.46;37.57;99731.31;5094270;28;20037;-66
2021/05/19 12:31:01;;;;;;;1.77;1.25;;;;;;;19.97;37.66;99719.84;5094774;28;20037;-68
2021/05/19 12:33:41;;;;;;;3.85;1.30;;;;;;;20.21;37.33;99728.66;5089355;28;27775;-69
2021/05/19 12:36:06;;;;;;;2.78;1.60;;;;;;;20.50;37.64;99726.66;5095014;28;20028;-67
2021/05/19 12:38:44;;;;;;;2.42;1.33;;;;;;;20.86;37.82;99721.81;5094566;28;20465;-63
2021/05/19 12:41:10;;;;;;;2.28;1.20;;;;;;;20.83;36.72;99721.47;5076157;28;20053;-63
2021/05/19 12:43:35;;;;;;;2.13;1.20;;;;;;;20.85;37.04;99725.59;5094552;28;20458;-66
2021/05/19 12:46:14;;;;;;;5.97;1.55;;;;;;;21.03;37.54;99715.53;5093734;28;39371;-66
2021/05/19 12:48:40;;;;;;;2.95;1.13;;;;;;;21.06;37.26;99718.53;5094485;28;20128;-63
2021/05/19 12:51:05;;;;;;;1.80;1.20;;;;;;;21.04;36.87;99717.19;5093927;28;34960;-63
2021/05/19 12:53:47;;;;;;;1.92;1.15;;;;;;;20.78;36.76;99717.63;5094902;28;20028;-66
2021/05/19 12:56:23;;;;;;;2.65;1.05;;;;;;;20.49;36.52;99716.94;5094662;28;20025;-63
2021/05/19 13:37:55;;;;;;;3.78;1.65;;;;;;;20.28;38.09;99727.44;5195613;27;20027;-64
2021/05/19 13:40:21;;;;;;;4.35;1.52;;;;;;;20.20;37.90;99738.66;5176462;27;20424;-63
2021/05/19 13:42:46;;;;;;;3.60;1.50;;;;;;;20.19;38.11;99734.31;5175680;27;37247;-63
2021/05/19 13:45:11;;;;;;;2.78;1.33;;;;;;;20.28;38.34;99732.84;5194730;27;20030;-63
2021/05/19 13:47:38;;;;;;;4.05;1.60;;;;;;;20.38;38.13;99734.03;5195001;27;20034;-65
2021/05/19 13:50:04;;;;;;;4.00;1.65;;;;;;;20.32;37.72;99727.75;5138325;27;20031;-64
2021/05/19 13:52:29;;;;;;;2.15;1.50;;;;;;;20.11;37.34;99732.00;5139889;27;20032;-64
2021/05/19 13:54:54;;;;;;;6.88;1.52;;;;;;;19.91;37.46;99733.28;5107204;28;26270;-65
2021/05/19 13:57:20;;;;;;;3.25;1.80;;;;;;;19.78;37.68;99731.66;5110830;28;40973;-63
2021/05/19 13:59:45;;;;;;;2.60;1.42;;;;;;;19.75;38.26;99728.63;5111367;28;20035;-65
2021/05/19 14:02:11;;;;;;;5.55;1.90;;;;;;;19.66;38.10;99730.09;5093043;28;20025;-65
2021/05/19 14:04:37;;;;;;;4.68;1.73;;;;;;;19.50;37.77;99731.69;5111290;28;20603;-63
2021/05/19 14:07:02;;;;;;;2.58;1.50;;;;;;;19.42;38.31;99724.75;5076696;28;20077;-65
2021/05/19 14:09:28;;;;;;;2.67;1.40;;;;;;;19.33;38.27;99727.03;5092282;28;33669;-64
2021/05/19 14:12:09;;;;;;;3.97;1.60;;;;;;;19.33;38.90;99726.19;5111719;28;20032;-65
2021/05/19 14:27:28;;;;;;;2.80;1.67;;;;;;;20.41;38.62;99733.56;5109039;28;20032;-68
2021/05/19 14:29:53;;;;;;;3.80;1.70;;;;;;;20.27;37.81;99747.41;5091487;28;20064;-66
2021/05/19 14:32:19;;;;;;;5.07;2.10;;;;;;;19.89;37.33;99740.00;5108651;28;42009;-65
2021/05/19 14:34:47;;;;;;;8.48;3.08;;;;;;;19.57;37.85;99737.75;5109992;28;20220;-66
2021/05/19 14:43:06;;;;;;;6.55;1.90;;;;;;;19.24;38.45;99745.47;5106375;28;20509;-68
2021/05/19 15:01:24;;;;;;;;;;;;;;;17.90;39.93;99749.56;5072731;28;20041;-64
2021/05/19 15:03:49;;;;;;;5.00;2.30;;;;;;;17.77;40.61;99746.03;5075078;28;19917;-66
2021/05/19 15:06:15;;;;;;;3.95;1.92;;;;;;;17.64;40.59;99745.38;5075345;28;20488;-69
2021/05/19 15:08:40;;;;;;;5.20;2.17;;;;;;;17.51;41.30;99747.19;5081866;28;30501;-68
2021/05/19 15:11:06;;;;;;;2.47;1.90;;;;;;;17.48;41.39;99749.50;5074819;28;20040;-67
2021/05/19 15:13:31;;;;;;;4.97;1.85;;;;;;;17.46;41.69;99747.06;5074977;28;20025;-66
2021/05/19 15:15:56;;;;;;;7.72;2.90;;;;;;;17.52;42.20;99751.53;5075334;28;20025;-67
2021/05/19 15:18:22;;;;;;;3.70;1.90;;;;;;;17.59;42.22;99757.66;5074244;28;29221;-65
2021/05/19 15:20:47;;;;;;;4.35;1.70;;;;;;;17.63;42.33;99754.50;5077334;28;20029;-63
2021/05/19 15:23:14;;;;;;;6.05;2.17;;;;;;;17.64;42.20;99758.84;5071312;28;40711;-67
2021/05/19 15:25:39;;;;;;;7.25;3.17;;;;;;;17.54;41.95;99760.22;5075016;28;20112;-66
2021/05/19 15:28:05;;;;;;;3.15;1.77;;;;;;;17.46;41.87;99763.22;5074994;28;20543;-66
2021/05/19 15:30:30;;;;;;;6.55;2.03;;;;;;;17.34;41.96;99756.94;5073756;28;20047;-64
2021/05/19 15:32:56;;;;;;;2.78;1.58;;;;;;;17.21;42.07;99757.94;5074183;28;37972;-65
2021/05/19 15:35:21;;;;;;;4.40;1.75;;;;;;;17.11;42.10;99763.81;5075037;28;20040;-66
2021/05/19 15:37:46;;;;;;;3.78;1.83;;;;;;;17.05;42.75;99768.22;5074811;28;20032;-66
2021/05/19 15:40:12;;;;;;;3.17;1.60;;;;;;;17.06;42.75;99771.75;5074980;28;20033;-64
2021/05/19 15:42:38;;;;;;;4.63;1.67;;;;;;;17.00;42.79;99769.94;5078652;28;20039;-63
2021/05/19 15:45:05;;;;;;;4.60;1.85;;;;;;;16.84;42.76;99776.69;5083859;28;20067;-66
2021/05/19 15:47:31;;;;;;;5.90;1.73;;;;;;;16.84;43.02;99772.13;5084908;28;20124;-63
2021/05/19 15:49:56;;;;;;;2.55;1.60;;;;;;;16.81;43.16;99764.50;5083373;28;20139;-65
2021/05/19 15:52:22;;;;;;;3.42;1.67;;;;;;;16.82;43.69;99763.44;5083268;28;20032;-63
2021/05/19 15:54:47;;;;;;;2.83;1.55;;;;;;;16.82;43.49;99765.34;5083716;28;20472;-64
2021/05/19 15:57:13;;;;;;;3.58;1.63;;;;;;;16.89;43.55;99750.81;5084792;28;20428;-66
2021/05/19 15:59:38;;;;;;;2.17;1.60;;;;;;;16.94;43.67;99760.91;5076551;28;20485;-64
2021/05/19 16:02:05;;;;;;;3.20;1.60;;;;;;;16.98;44.06;99758.59;5073948;28;20037;-66
2021/05/19 16:04:32;;;;;;;2.35;1.58;;;;;;;17.06;44.07;99763.69;5073802;28;20124;-66
2021/05/19 16:06:59;;;;;;;4.38;2.80;;;;;;;17.07;44.07;99766.16;5073847;28;20107;-66
2021/05/19 16:09:24;;;;;;;3.33;2.10;;;;;;;17.05;43.88;99762.03;5064355;28;20032;-64
2021/05/19 16:11:52;;;;;;;7.70;4.35;;;;;;;16.98;43.98;99759.41;5088948;28;30284;-66
2021/05/19 16:14:18;;;;;;;4.40;3.08;;;;;;;16.96;44.44;99757.97;5094361;28;20469;-67
2021/05/19 16:16:43;;;;;;;3.35;2.15;;;;;;;16.91;44.31;99753.28;5093915;28;20039;-67
2021/05/19 16:19:09;;;;;;;2.63;1.70;;;;;;;16.84;44.29;99766.75;5093795;28;39794;-66
2021/05/19 16:21:34;;;;;;;2.10;1.60;;;;;;;16.80;44.04;99757.50;5093235;28;39296;-66
2021/05/19 16:23:59;;;;;;;4.43;2.50;;;;;;;16.77;44.49;99755.22;5075517;28;27015;-64
2021/05/19 16:26:25;;;;;;;3.55;1.75;;;;;;;16.76;44.19;99758.97;5093578;28;20033;-67
2021/05/19 16:28:50;;;;;;;8.07;4.10;;;;;;;16.70;44.57;99758.00;5093314;28;20032;-65
2021/05/19 16:31:23;;;;;;;8.43;3.90;;;;;;;16.67;44.52;99760.28;5075366;28;20055;-66
2021/05/19 16:34:14;;;;;;;8.38;2.80;;;;;;;16.61;44.70;99750.41;5093750;28;20093;-65
2021/05/19 16:36:52;;;;;;;4.90;3.00;;;;;;;16.55;44.69;99760.19;5093757;28;20032;-65
2021/05/19 16:39:39;;;;;;;3.97;1.83;;;;;;;16.54;44.89;99759.38;5094180;28;20062;-67
2021/05/19 16:42:12;;;;;;;3.25;1.92;;;;;;;16.50;45.15;99752.78;5093457;28;20523;-64
2021/05/19 16:44:40;;;;;;;2.53;1.55;;;;;;;16.42;44.75;99758.44;5092364;28;20024;-65
2021/05/19 16:47:06;;;;;;;4.57;2.53;;;;;;;16.39;45.26;99758.88;5090449;28;20118;-66
2021/05/19 16:49:31;;;;;;;13.77;6.88;;;;;;;16.34;44.87;99766.78;5094043;28;20102;-65
2021/05/19 16:52:01;;;;;;;14.75;5.93;;;;;;;16.34;45.44;99766.78;5094324;28;20374;-64
2021/05/19 16:54:27;;;;;;;4.97;2.80;;;;;;;16.35;45.32;99760.38;5075713;28;20033;-63
2021/05/19 16:56:53;;;;;;;3.92;1.90;;;;;;;16.32;45.30;99771.53;5094194;28;20063;-65
2021/05/19 16:59:21;;;;;;;3.65;2.42;;;;;;;16.28;45.47;99767.63;5094144;28;20059;-64
2021/05/19 17:06:57;;;;;;;5.85;2.58;;;;;;;16.01;45.46;99771.34;5093043;28;20044;-64
2021/05/19 17:09:22;;;;;;;3.50;1.95;;;;;;;15.94;45.67;99778.63;5093220;28;38747;-63
2021/05/19 17:11:50;;;;;;;3.88;1.85;;;;;;;15.90;46.36;99780.91;5092696;28;38068;-63
2021/05/19 17:14:16;;;;;;;2.63;1.83;;;;;;;15.88;46.38;99787.53;5094142;28;20032;-63
2021/05/19 17:16:41;;;;;;;4.63;2.20;;;;;;;15.87;46.39;99799.31;5074519;28;36903;-64
2021/05/19 17:19:07;;;;;;;4.03;2.13;;;;;;;15.92;46.57;99798.66;5093898;28;20024;-62
2021/05/19 17:21:33;;;;;;;1.42;1.10;;;;;;;15.88;46.37;99796.41;5075623;28;20039;-64
2021/05/19 17:23:58;;;;;;;2.33;1.10;;;;;;;15.83;46.44;99788.19;5094017;28;20028;-63
2021/05/19 17:26:24;;;;;;;1.90;0.80;;;;;;;15.73;46.26;99788.63;5074787;28;27296;-64
2021/05/19 17:28:50;;;;;;;1.13;0.85;;;;;;;15.69;46.95;99789.22;5093015;28;20036;-64
2021/05/19 17:31:15;;;;;;;1.95;0.93;;;;;;;15.65;46.89;99782.66;5074612;28;20139;-62
2021/05/19 17:33:41;;;;;;;1.20;1.00;;;;;;;15.67;47.08;99788.63;5089949;28;20495;-65
2021/05/19 17:36:06;;;;;;;2.15;0.93;;;;;;;15.65;46.88;99793.38;5093950;28;20468;-64
2021/05/19 17:38:32;;;;;;;3.95;1.33;;;;;;;15.55;46.65;99792.00;5094350;28;20527;-67
2021/05/19 17:40:57;;;;;;;3.80;1.63;;;;;;;15.46;46.89;99785.22;5094579;28;20416;-65
2021/05/19 17:43:22;;;;;;;4.57;1.40;;;;;;;15.39;46.94;99787.06;5094364;28;20055;-66
2021/05/19 17:45:48;;;;;;;6.85;1.52;;;;;;;15.32;47.54;99786.28;5093964;28;31915;-65
2021/05/19 17:48:13;;;;;;;8.48;1.90;;;;;;;15.21;47.39;99796.66;5094466;28;20025;-65
2021/05/19 17:50:39;;;;;;;3.08;1.67;;;;;;;15.09;47.44;99795.66;5094412;28;20788;-67
2021/05/19 17:53:04;;;;;;;3.83;1.95;;;;;;;14.94;47.25;99790.50;5094843;28;20400;-67